createdAt,value
2018-10-05T00:02:06.242Z,10.49
2018-10-05T00:06:11.296Z,10.49
2018-10-05T00:10:16.545Z,10.55
2018-10-05T00:14:21.639Z,10.56
2018-10-05T00:18:26.677Z,10.59
2018-10-05T00:22:31.815Z,10.54
2018-10-05T00:26:36.838Z,10.46
2018-10-05T00:30:41.888Z,10.38
2018-10-05T00:34:46.914Z,10.37
2018-10-05T00:38:51.924Z,10.34
2018-10-05T00:42:56.997Z,10.20
2018-10-05T00:47:02.013Z,10.18
2018-10-05T00:51:07.118Z,10.14
2018-10-05T00:55:12.133Z,10.21
2018-10-05T00:59:17.155Z,10.16
2018-10-05T01:03:22.166Z,10.15
2018-10-05T01:07:27.192Z,10.13
2018-10-05T01:11:32.295Z,10.06
2018-10-05T01:15:37.502Z,10.15
2018-10-05T01:19:43.081Z,10.16
2018-10-05T01:23:48.117Z,10.02
2018-10-05T01:27:53.160Z,10.01
2018-10-05T01:31:58.191Z,9.90
2018-10-05T01:36:03.209Z,9.79
2018-10-05T01:40:08.238Z,9.69
2018-10-05T01:44:13.260Z,9.60
2018-10-05T01:48:18.280Z,9.68
2018-10-05T01:52:23.344Z,9.63
2018-10-05T01:56:28.385Z,9.62
2018-10-05T02:00:33.446Z,9.52
2018-10-05T02:04:38.465Z,9.38
2018-10-05T02:08:43.476Z,9.23
2018-10-05T02:12:48.489Z,8.93
2018-10-05T02:16:53.535Z,8.99
2018-10-05T02:20:58.796Z,8.86
2018-10-05T02:25:03.876Z,8.81
2018-10-05T02:29:08.912Z,8.79
2018-10-05T02:33:13.914Z,8.88
2018-10-05T02:37:18.951Z,8.89
2018-10-05T02:41:23.985Z,8.95
2018-10-05T02:45:29.054Z,8.98
2018-10-05T02:49:34.085Z,8.94
2018-10-05T02:53:39.137Z,8.96
2018-10-05T02:57:44.217Z,8.92
2018-10-05T03:02:06.186Z,9.02
2018-10-05T03:06:11.221Z,9.09
2018-10-05T03:10:16.225Z,9.11
2018-10-05T03:14:21.246Z,9.15
2018-10-05T03:18:26.269Z,9.25
2018-10-05T03:22:31.321Z,9.30
2018-10-05T03:26:36.381Z,9.23
2018-10-05T03:30:41.420Z,9.17
2018-10-05T03:34:46.472Z,9.13
2018-10-05T03:38:51.510Z,9.13
2018-10-05T03:42:56.550Z,9.19
2018-10-05T03:47:01.582Z,9.20
2018-10-05T03:51:06.633Z,9.18
2018-10-05T03:55:11.634Z,9.00
2018-10-05T03:59:16.672Z,9.10
2018-10-05T04:03:21.685Z,9.01
2018-10-05T04:07:26.709Z,9.09
2018-10-05T04:11:31.719Z,9.03
2018-10-05T04:15:36.737Z,8.92
2018-10-05T04:19:41.749Z,8.54
2018-10-05T04:23:46.750Z,8.65
2018-10-05T04:27:51.752Z,8.70
2018-10-05T04:31:56.739Z,8.77
2018-10-05T04:36:01.765Z,8.77
2018-10-05T04:40:06.809Z,8.66
2018-10-05T04:44:11.861Z,8.68
2018-10-05T04:48:16.886Z,8.69
2018-10-05T04:52:21.912Z,8.81
2018-10-05T04:56:26.939Z,8.81
2018-10-05T05:00:31.929Z,8.84
2018-10-05T05:04:36.937Z,8.89
2018-10-05T05:08:41.990Z,8.91
2018-10-05T05:12:47.050Z,8.89
2018-10-05T05:16:52.131Z,8.97
2018-10-05T05:20:57.195Z,8.75
2018-10-05T05:25:02.223Z,8.57
2018-10-05T05:29:07.909Z,8.80
2018-10-05T05:33:12.936Z,9.26
2018-10-05T05:37:18.017Z,8.93
2018-10-05T05:41:23.097Z,8.74
2018-10-05T05:45:28.147Z,8.94
2018-10-05T05:49:33.178Z,9.04
2018-10-05T05:53:38.225Z,9.15
2018-10-05T05:57:43.229Z,8.81
2018-10-05T06:01:48.260Z,9.08
2018-10-05T06:05:53.360Z,9.18
2018-10-05T06:09:58.413Z,9.15
2018-10-05T06:14:03.461Z,9.28
2018-10-05T06:18:08.594Z,9.17
2018-10-05T06:22:13.731Z,9.14
2018-10-05T06:26:18.631Z,9.19
2018-10-05T06:30:23.674Z,9.26
2018-10-05T06:34:28.781Z,9.38
2018-10-05T06:38:34.422Z,9.74
2018-10-05T06:42:39.554Z,9.60
2018-10-05T06:46:44.617Z,9.75
2018-10-05T06:50:49.662Z,9.59
2018-10-05T06:54:54.669Z,9.70
2018-10-05T06:58:59.689Z,10.09
2018-10-05T07:03:04.713Z,10.12
2018-10-05T07:07:09.759Z,10.27
2018-10-05T07:11:14.835Z,10.88
2018-10-05T07:15:19.845Z,10.44
2018-10-05T07:19:24.912Z,10.41
2018-10-05T07:23:29.971Z,10.42
2018-10-05T07:27:35.007Z,10.67
2018-10-05T07:31:40.053Z,10.85
2018-10-05T07:35:45.114Z,10.98
2018-10-05T07:39:50.149Z,11.05
2018-10-05T07:43:55.170Z,11.01
2018-10-05T07:48:00.232Z,11.21
2018-10-05T07:52:05.238Z,11.37
2018-10-05T07:56:10.269Z,11.52
2018-10-05T08:00:15.324Z,12.19
2018-10-05T08:04:20.437Z,12.61
2018-10-05T08:08:25.477Z,12.55
2018-10-05T08:12:30.512Z,12.73
2018-10-05T08:16:35.571Z,13.10
2018-10-05T08:20:40.609Z,14.02
2018-10-05T08:24:45.652Z,13.91
2018-10-05T08:28:50.699Z,13.95
2018-10-05T08:32:55.767Z,14.96
2018-10-05T08:37:00.785Z,15.42
2018-10-05T08:41:05.841Z,15.38
2018-10-05T08:45:10.864Z,16.34
2018-10-05T08:49:15.925Z,16.22
2018-10-05T08:53:20.979Z,15.85
2018-10-05T08:57:26.126Z,16.99
2018-10-05T09:01:31.194Z,16.22
2018-10-05T09:05:36.248Z,15.96
2018-10-05T09:09:41.248Z,15.54
2018-10-05T09:13:46.750Z,15.72
2018-10-05T09:17:51.814Z,15.20
2018-10-05T09:21:56.872Z,14.73
2018-10-05T09:26:01.930Z,15.24
2018-10-05T09:30:07.997Z,15.27
2018-10-05T09:34:13.202Z,15.39
2018-10-05T09:38:18.280Z,15.21
2018-10-05T09:42:24.026Z,15.78
2018-10-05T09:46:29.090Z,15.40
2018-10-05T09:50:34.585Z,15.49
2018-10-05T09:54:39.624Z,15.44
2018-10-05T09:58:44.669Z,15.58
2018-10-05T10:02:55.315Z,15.66
2018-10-05T10:07:00.353Z,15.69
2018-10-05T10:11:05.399Z,16.16
2018-10-05T10:15:10.462Z,15.90
2018-10-05T10:19:15.486Z,16.35
2018-10-05T10:23:20.554Z,16.45
2018-10-05T10:27:25.695Z,16.38
2018-10-05T10:31:31.741Z,16.47
2018-10-05T10:35:36.792Z,16.61
2018-10-05T10:39:41.820Z,17.03
2018-10-05T10:43:47.907Z,17.23
2018-10-05T10:47:53.860Z,16.93
2018-10-05T10:51:58.893Z,17.37
2018-10-05T10:56:04.004Z,17.48
2018-10-05T11:00:09.096Z,17.88
2018-10-05T11:04:14.265Z,17.91
2018-10-05T11:08:19.221Z,18.24
2018-10-05T11:12:24.245Z,18.23
2018-10-05T11:16:29.301Z,18.73
2018-10-05T11:20:34.361Z,19.12
2018-10-05T11:24:39.409Z,19.30
2018-10-05T11:28:44.447Z,20.06
2018-10-05T11:32:49.512Z,21.08
2018-10-05T11:36:54.592Z,21.13
2018-10-05T11:40:59.695Z,22.19
2018-10-05T11:45:04.774Z,22.66
2018-10-05T11:49:09.820Z,22.15
2018-10-05T11:53:14.962Z,23.65
2018-10-05T11:57:20.008Z,23.98
2018-10-05T12:01:25.206Z,23.50
2018-10-05T12:05:30.265Z,23.74
2018-10-05T12:09:35.299Z,22.94
2018-10-05T12:13:40.334Z,23.82
2018-10-05T12:17:45.439Z,24.28
2018-10-05T12:21:50.474Z,25.05
2018-10-05T12:25:55.531Z,24.18
2018-10-05T12:30:00.598Z,25.25
2018-10-05T12:34:05.594Z,25.96
2018-10-05T12:38:10.658Z,25.50
2018-10-05T12:42:15.690Z,24.95
2018-10-05T12:46:20.767Z,25.49
2018-10-05T12:50:25.829Z,26.04
2018-10-05T12:54:30.878Z,26.04
2018-10-05T12:58:35.916Z,26.10
2018-10-05T13:02:40.962Z,26.33
2018-10-05T13:06:45.985Z,26.70
2018-10-05T13:10:51.027Z,26.05
2018-10-05T13:14:56.096Z,26.06
2018-10-05T13:19:01.202Z,25.55
2018-10-05T13:23:08.996Z,26.58
2018-10-05T13:27:14.143Z,26.02
2018-10-05T13:31:19.212Z,25.62
2018-10-05T13:35:24.249Z,25.87
2018-10-05T13:39:29.289Z,26.45
2018-10-05T13:43:34.329Z,25.30
2018-10-05T13:47:39.374Z,26.69
2018-10-05T13:51:44.421Z,26.16
2018-10-05T13:55:49.469Z,25.16
2018-10-05T13:59:54.496Z,24.84
2018-10-05T14:03:59.531Z,25.09
2018-10-05T14:08:04.542Z,23.81
2018-10-05T14:12:09.597Z,23.79
2018-10-05T14:16:14.621Z,23.48
2018-10-05T14:20:19.654Z,22.92
2018-10-05T14:24:24.686Z,22.46
2018-10-05T14:28:29.731Z,22.79
2018-10-05T14:32:34.749Z,23.02
2018-10-05T14:36:39.786Z,22.91
2018-10-05T14:40:44.832Z,22.36
2018-10-05T14:44:49.857Z,22.34
2018-10-05T14:48:54.893Z,22.03
2018-10-05T14:52:59.925Z,22.16
2018-10-05T14:57:05.052Z,21.80
2018-10-05T15:01:10.018Z,21.63
2018-10-05T15:05:15.071Z,21.73
2018-10-05T15:09:20.102Z,21.51
2018-10-05T15:13:25.149Z,21.44
2018-10-05T15:17:30.298Z,21.44
2018-10-05T15:21:35.447Z,21.48
2018-10-05T15:25:40.390Z,21.21
2018-10-05T15:29:45.433Z,21.16
2018-10-05T15:33:50.482Z,21.02
2018-10-05T15:37:55.526Z,21.12
2018-10-05T15:42:00.592Z,21.03
2018-10-05T15:46:08.613Z,21.01
2018-10-05T15:50:13.690Z,20.94
2018-10-05T15:54:18.765Z,20.91
2018-10-05T15:58:23.813Z,20.95
2018-10-05T16:02:28.845Z,20.88
2018-10-05T16:06:34.246Z,20.93
2018-10-05T16:10:39.284Z,20.86
2018-10-05T16:14:44.304Z,20.84
2018-10-05T16:18:49.377Z,20.69
2018-10-05T16:22:54.423Z,20.66
2018-10-05T16:26:59.461Z,20.59
2018-10-05T16:31:04.596Z,20.54
2018-10-05T16:35:09.605Z,20.47
2018-10-05T16:39:14.645Z,20.41
2018-10-05T16:43:19.693Z,20.25
2018-10-05T16:47:24.796Z,20.30
2018-10-05T16:51:29.810Z,20.19
2018-10-05T16:55:34.911Z,20.15
2018-10-05T16:59:39.950Z,20.16
2018-10-05T17:03:45.114Z,20.24
2018-10-05T17:07:50.206Z,20.14
2018-10-05T17:11:55.258Z,19.97
2018-10-05T17:16:00.348Z,19.85
2018-10-05T17:20:05.572Z,19.80
2018-10-05T17:24:10.689Z,19.62
2018-10-05T17:28:16.218Z,19.56
2018-10-05T17:32:21.361Z,19.44
2018-10-05T17:36:26.634Z,19.42
2018-10-05T17:40:31.786Z,19.26
2018-10-05T17:44:36.898Z,19.12
2018-10-05T17:48:43.608Z,18.99
2018-10-05T17:52:48.733Z,18.84
2018-10-05T17:56:53.926Z,18.58
2018-10-05T18:00:59.032Z,18.60
2018-10-05T18:05:04.093Z,18.54
2018-10-05T18:09:09.158Z,18.42
2018-10-05T18:13:14.249Z,18.06
2018-10-05T18:17:19.297Z,18.01
2018-10-05T18:21:24.321Z,17.98
2018-10-05T18:25:29.365Z,17.79
2018-10-05T18:29:34.485Z,17.64
2018-10-05T18:33:39.546Z,17.57
2018-10-05T18:37:44.681Z,17.50
2018-10-05T18:41:49.784Z,17.49
2018-10-05T18:45:54.830Z,17.49
2018-10-05T18:49:59.892Z,17.42
2018-10-05T18:54:04.953Z,17.27
2018-10-05T18:58:10.009Z,17.24
2018-10-05T19:02:16.015Z,17.14
2018-10-05T19:06:21.212Z,17.22
2018-10-05T19:10:26.261Z,17.76
2018-10-05T19:14:31.381Z,17.76
2018-10-05T19:18:36.443Z,17.20
2018-10-05T19:22:41.530Z,17.58
2018-10-05T19:26:47.252Z,17.51
2018-10-05T19:30:52.252Z,17.17
2018-10-05T19:34:57.306Z,16.83
2018-10-05T19:39:02.332Z,16.73
2018-10-05T19:43:07.415Z,16.60
2018-10-05T19:47:12.443Z,16.51
2018-10-05T19:51:17.502Z,16.34
2018-10-05T19:55:22.555Z,16.27
2018-10-05T19:59:27.628Z,16.13
2018-10-05T20:03:32.697Z,16.07
2018-10-05T20:07:37.743Z,15.96
2018-10-05T20:11:42.801Z,15.83
2018-10-05T20:15:47.846Z,15.82
2018-10-05T20:19:52.881Z,15.75
2018-10-05T20:23:57.917Z,15.68
2018-10-05T20:28:02.958Z,15.64
2018-10-05T20:32:08.037Z,15.56
2018-10-05T20:36:13.255Z,15.42
2018-10-05T20:40:18.151Z,15.40
2018-10-05T20:44:23.219Z,15.36
2018-10-05T20:48:28.241Z,15.31
2018-10-05T20:52:33.384Z,15.15
2018-10-05T20:56:38.433Z,15.08
2018-10-05T21:00:43.473Z,15.02
2018-10-05T21:04:48.497Z,14.89
2018-10-05T21:08:53.552Z,14.91
2018-10-05T21:12:58.660Z,14.76
2018-10-05T21:17:03.805Z,14.68
2018-10-05T21:21:08.850Z,14.54
2018-10-05T21:25:13.900Z,14.34
2018-10-05T21:29:18.945Z,14.17
2018-10-05T21:33:24.086Z,14.06
2018-10-05T21:37:29.041Z,14.09
2018-10-05T21:41:34.103Z,13.92
2018-10-05T21:45:39.165Z,13.96
2018-10-05T21:49:44.205Z,14.20
2018-10-05T21:53:49.321Z,14.17
2018-10-05T21:57:54.360Z,13.85
2018-10-05T22:01:59.401Z,13.66
2018-10-05T22:06:04.659Z,13.52
2018-10-05T22:10:09.702Z,13.50
2018-10-05T22:14:14.748Z,13.42
2018-10-05T22:18:19.794Z,13.28
2018-10-05T22:22:25.399Z,13.18
2018-10-05T22:26:30.429Z,13.19
2018-10-05T22:30:35.465Z,13.06
2018-10-05T22:34:40.565Z,13.09
2018-10-05T22:38:45.662Z,13.09
2018-10-05T22:42:50.734Z,13.07
2018-10-05T22:46:55.969Z,13.06
2018-10-05T22:51:01.042Z,12.98
2018-10-05T22:55:06.089Z,12.83
2018-10-05T22:59:11.136Z,12.83
2018-10-05T23:03:16.734Z,12.77
2018-10-05T23:07:21.878Z,12.70
2018-10-05T23:11:26.965Z,12.62
2018-10-05T23:15:32.616Z,12.69
2018-10-05T23:19:37.661Z,12.54
2018-10-05T23:23:42.711Z,12.58
2018-10-05T23:27:47.746Z,12.49
2018-10-05T23:31:52.798Z,12.41
2018-10-05T23:35:57.845Z,12.37
2018-10-05T23:40:02.921Z,12.35
2018-10-05T23:44:08.407Z,12.49
2018-10-05T23:48:13.437Z,12.33
2018-10-05T23:52:42.882Z,12.30
2018-10-05T23:56:47.938Z,12.26
